createdAt,value
2022-08-17T00:02:25.971Z,24.35
2022-08-17T00:07:29.488Z,24.36
2022-08-17T00:12:44.546Z,24.29
2022-08-17T00:17:49.171Z,24.18
2022-08-17T00:23:09.966Z,24.03
2022-08-17T00:28:16.184Z,23.85
2022-08-17T00:33:24.361Z,23.69
2022-08-17T00:38:29.197Z,23.59
2022-08-17T00:43:37.761Z,23.58
2022-08-17T00:48:42.291Z,23.62
2022-08-17T00:53:51.475Z,23.57
2022-08-17T00:58:55.430Z,23.45
2022-08-17T01:03:59.989Z,23.35
2022-08-17T01:09:04.281Z,23.30
2022-08-17T01:14:09.032Z,23.26
2022-08-17T01:19:20.204Z,23.24
2022-08-17T01:24:23.352Z,23.23
2022-08-17T01:29:30.861Z,23.21
2022-08-17T01:34:42.676Z,23.21
2022-08-17T01:39:54.224Z,23.15
2022-08-17T01:45:03.168Z,23.11
2022-08-17T01:50:16.507Z,23.10
2022-08-17T01:55:27.454Z,23.08
2022-08-17T02:00:59.694Z,23.06
2022-08-17T02:05:53.432Z,23.01
2022-08-17T02:10:56.448Z,22.95
2022-08-17T02:16:00.735Z,22.90
2022-08-17T02:21:04.891Z,22.90
2022-08-17T02:26:08.065Z,22.91
2022-08-17T02:31:12.670Z,22.94
2022-08-17T02:36:15.426Z,22.95
2022-08-17T02:41:18.882Z,22.93
2022-08-17T02:46:22.663Z,22.94
2022-08-17T02:51:27.678Z,22.95
2022-08-17T02:56:30.409Z,22.96
2022-08-17T03:01:33.168Z,22.95
2022-08-17T03:06:36.171Z,22.91
2022-08-17T03:11:38.985Z,22.84
2022-08-17T03:16:41.696Z,22.83
2022-08-17T03:21:45.170Z,22.85
2022-08-17T03:26:47.964Z,22.81
2022-08-17T03:31:50.643Z,22.77
2022-08-17T03:36:53.357Z,22.77
2022-08-17T03:42:07.049Z,22.77
2022-08-17T03:47:29.266Z,22.76
2022-08-17T03:52:51.883Z,22.75
2022-08-17T03:57:55.472Z,22.71
2022-08-17T04:02:58.219Z,22.65
2022-08-17T04:08:01.038Z,22.64
2022-08-17T04:13:07.891Z,22.65
2022-08-17T04:18:10.990Z,22.57
2022-08-17T04:23:17.167Z,22.51
2022-08-17T04:28:21.085Z,22.44
2022-08-17T04:33:27.362Z,22.43
2022-08-17T04:38:35.869Z,22.46
2022-08-17T04:43:40.809Z,22.49
2022-08-17T04:48:47.302Z,22.55
2022-08-17T04:53:55.167Z,22.59
2022-08-17T04:59:09.047Z,22.61
2022-08-17T05:04:32.802Z,22.67
2022-08-17T05:09:37.474Z,22.77
2022-08-17T05:14:40.929Z,22.85
2022-08-17T05:19:43.620Z,22.92
2022-08-17T05:24:53.367Z,22.97
2022-08-17T05:29:57.288Z,23.03
2022-08-17T05:35:00.620Z,23.08
2022-08-17T05:40:04.558Z,23.17
2022-08-17T05:45:08.369Z,23.22
2022-08-17T05:50:26.080Z,23.29
2022-08-17T05:55:38.914Z,23.43
2022-08-17T06:00:56.088Z,23.53
2022-08-17T06:06:31.356Z,23.72
2022-08-17T06:11:42.820Z,23.91
2022-08-17T06:16:51.589Z,24.10
2022-08-17T06:21:56.004Z,24.28
2022-08-17T06:27:07.414Z,24.52
2022-08-17T06:32:12.854Z,24.80
2022-08-17T06:37:39.248Z,25.13
2022-08-17T06:43:14.779Z,25.41
2022-08-17T06:48:32.724Z,25.68
2022-08-17T06:53:59.730Z,25.98
2022-08-17T06:59:03.264Z,26.24
2022-08-17T07:04:14.429Z,26.49
2022-08-17T07:09:34.360Z,26.77
2022-08-17T07:14:51.817Z,26.98
2022-08-17T07:20:05.533Z,27.21
2022-08-17T07:25:11.909Z,27.35
2022-08-17T07:30:26.126Z,27.46
2022-08-17T07:35:31.358Z,27.61
2022-08-17T07:40:49.983Z,27.89
2022-08-17T07:46:16.896Z,28.09
2022-08-17T07:51:29.396Z,28.30
2022-08-17T07:56:37.892Z,28.40
2022-08-17T08:01:42.518Z,28.56
2022-08-17T08:06:54.446Z,28.73
2022-08-17T08:11:57.222Z,28.87
2022-08-17T08:17:04.526Z,29.08
2022-08-17T08:22:16.349Z,29.33
2022-08-17T08:27:38.618Z,29.53
2022-08-17T08:33:20.216Z,29.74
2022-08-17T08:38:39.320Z,30.02
2022-08-17T08:44:03.659Z,30.34
2022-08-17T08:50:03.331Z,30.63
2022-08-17T08:55:19.703Z,30.88
2022-08-17T09:00:25.617Z,31.03
2022-08-17T09:05:48.411Z,31.11
2022-08-17T09:10:51.249Z,31.40
2022-08-17T09:16:00.073Z,31.71
2022-08-17T09:21:33.964Z,31.50
2022-08-17T09:26:54.053Z,31.24
2022-08-17T09:32:01.608Z,31.44
2022-08-17T09:37:23.255Z,31.46
2022-08-17T09:42:35.638Z,31.29
2022-08-17T09:47:48.018Z,31.50
2022-08-17T09:52:58.216Z,31.87
2022-08-17T09:58:30.266Z,32.27
2022-08-17T10:03:43.101Z,32.63
2022-08-17T10:09:09.738Z,32.96
2022-08-17T10:14:35.961Z,33.34
2022-08-17T10:19:51.995Z,33.42
2022-08-17T10:25:22.935Z,33.35
2022-08-17T10:30:31.298Z,33.51
2022-08-17T10:35:39.778Z,33.73
2022-08-17T10:40:54.847Z,33.91
2022-08-17T10:46:30.019Z,34.14
2022-08-17T10:51:40.060Z,34.46
2022-08-17T10:56:50.505Z,34.78
2022-08-17T11:02:03.586Z,34.95
2022-08-17T11:07:25.959Z,35.07
2022-08-17T11:12:47.774Z,35.07
2022-08-17T11:18:11.531Z,35.24
2022-08-17T11:23:29.612Z,35.41
2022-08-17T11:28:45.182Z,35.61
2022-08-17T11:33:59.225Z,35.62
2022-08-17T11:39:06.229Z,35.75
2022-08-17T11:44:15.701Z,36.02
2022-08-17T11:50:01.034Z,36.18
2022-08-17T11:55:31.927Z,36.16
2022-08-17T12:00:46.372Z,35.70
2022-08-17T12:05:53.632Z,35.14
2022-08-17T12:11:07.010Z,35.07
2022-08-17T12:16:15.467Z,35.41
2022-08-17T12:21:27.065Z,35.52
2022-08-17T12:26:33.394Z,35.66
2022-08-17T12:31:44.424Z,35.45
2022-08-17T12:36:50.470Z,35.22
2022-08-17T12:42:01.959Z,35.44
2022-08-17T12:47:21.834Z,35.28
2022-08-17T12:52:33.131Z,34.97
2022-08-17T12:57:38.472Z,34.91
2022-08-17T13:02:58.860Z,34.71
2022-08-17T13:08:06.166Z,34.54
2022-08-17T13:13:21.398Z,34.29
2022-08-17T13:18:49.902Z,34.06
2022-08-17T13:23:57.579Z,33.87
2022-08-17T13:29:03.945Z,33.78
2022-08-17T13:34:12.779Z,33.87
2022-08-17T13:39:25.383Z,34.15
2022-08-17T13:44:39.548Z,34.31
2022-08-17T13:49:48.755Z,34.26
2022-08-17T13:54:52.278Z,34.15
2022-08-17T14:00:18.045Z,34.01
2022-08-17T14:05:20.756Z,34.01
2022-08-17T14:10:25.403Z,34.03
2022-08-17T14:15:55.064Z,33.93
2022-08-17T14:20:53.282Z,33.75
2022-08-17T14:25:55.957Z,33.58
2022-08-17T14:30:59.030Z,33.39
2022-08-17T14:36:01.965Z,33.33
2022-08-17T14:41:05.231Z,33.63
2022-08-17T14:46:07.963Z,33.75
2022-08-17T14:51:11.933Z,33.68
2022-08-17T14:56:14.808Z,33.57
2022-08-17T15:01:20.278Z,33.41
2022-08-17T15:06:24.851Z,33.26
2022-08-17T15:11:27.408Z,33.10
2022-08-17T15:16:30.190Z,32.98
2022-08-17T15:21:36.004Z,32.89
2022-08-17T15:26:39.257Z,32.80
2022-08-17T15:31:42.014Z,32.78
2022-08-17T15:36:49.497Z,33.01
2022-08-17T15:41:58.626Z,33.02
2022-08-17T15:47:01.984Z,32.85
2022-08-17T15:52:26.298Z,32.72
2022-08-17T15:57:28.854Z,33.04
2022-08-17T16:03:13.819Z,34.01
2022-08-17T16:07:56.728Z,34.99
2022-08-17T16:12:59.717Z,35.01
2022-08-17T16:18:03.037Z,34.57
2022-08-17T16:23:05.838Z,34.16
2022-08-17T16:28:08.558Z,33.79
2022-08-17T16:33:11.872Z,33.40
2022-08-17T16:38:14.592Z,32.99
2022-08-17T16:43:17.374Z,32.65
2022-08-17T16:48:20.102Z,32.36
2022-08-17T16:53:23.166Z,32.04
2022-08-17T16:58:26.080Z,31.78
2022-08-17T17:03:31.380Z,31.51
2022-08-17T17:08:48.552Z,31.27
2022-08-17T17:13:57.916Z,31.04
2022-08-17T17:19:10.399Z,30.83
2022-08-17T17:24:29.925Z,30.64
2022-08-17T17:29:48.747Z,30.41
2022-08-17T17:35:00.818Z,30.22
2022-08-17T17:40:12.542Z,30.01
2022-08-17T17:45:26.205Z,29.84
2022-08-17T17:50:48.953Z,29.70
2022-08-17T17:56:01.739Z,29.50
2022-08-17T18:01:29.907Z,29.31
2022-08-17T18:07:03.145Z,29.12
2022-08-17T18:12:19.954Z,28.97
2022-08-17T18:17:23.277Z,28.78
2022-08-17T18:22:26.378Z,28.60
2022-08-17T18:27:39.009Z,28.40
2022-08-17T18:32:46.478Z,28.26
2022-08-17T18:37:52.184Z,28.15
2022-08-17T18:42:55.146Z,28.07
2022-08-17T18:47:57.957Z,28.00
2022-08-17T18:53:33.222Z,27.91
2022-08-17T18:58:36.922Z,27.80
2022-08-17T19:03:43.286Z,27.68
2022-08-17T19:08:46.151Z,27.57
2022-08-17T19:14:08.120Z,27.49
2022-08-17T19:19:26.814Z,27.39
2022-08-17T19:24:33.695Z,27.26
2022-08-17T19:30:08.421Z,27.13
2022-08-17T19:35:17.412Z,27.00
2022-08-17T19:40:55.763Z,26.88
2022-08-17T19:46:07.589Z,26.76
2022-08-17T19:51:29.199Z,26.64
2022-08-17T19:56:44.060Z,26.52
2022-08-17T20:02:09.095Z,26.42
2022-08-17T20:07:23.870Z,26.35
2022-08-17T20:12:31.659Z,26.29
2022-08-17T20:17:43.826Z,26.22
2022-08-17T20:23:12.809Z,26.17
2022-08-17T20:28:18.232Z,26.11
2022-08-17T20:33:32.668Z,26.04
2022-08-17T20:38:51.201Z,25.94
2022-08-17T20:43:56.854Z,25.86
2022-08-17T20:49:45.248Z,25.81
2022-08-17T20:54:52.260Z,25.73
2022-08-17T20:59:56.979Z,25.66
2022-08-17T21:05:07.268Z,25.58
2022-08-17T21:10:14.069Z,25.49
2022-08-17T21:15:35.908Z,25.37
2022-08-17T21:21:17.906Z,25.26
2022-08-17T21:26:29.651Z,25.17
2022-08-17T21:31:40.995Z,25.09
2022-08-17T21:36:50.903Z,24.97
2022-08-17T21:41:56.815Z,24.87
2022-08-17T21:47:19.943Z,24.75
2022-08-17T21:52:27.137Z,24.64
2022-08-17T21:57:31.023Z,24.56
2022-08-17T22:02:41.791Z,24.49
2022-08-17T22:07:53.050Z,24.42
2022-08-17T22:13:18.193Z,24.35
2022-08-17T22:18:28.905Z,24.23
2022-08-17T22:23:55.964Z,24.08
2022-08-17T22:28:59.030Z,23.98
2022-08-17T22:34:04.710Z,23.96
2022-08-17T22:39:08.390Z,23.98
2022-08-17T22:44:14.316Z,23.95
2022-08-17T22:49:31.741Z,23.87
2022-08-17T22:54:53.300Z,23.82
2022-08-17T22:59:57.577Z,23.77
2022-08-17T23:05:09.701Z,23.72
2022-08-17T23:10:14.475Z,23.63
2022-08-17T23:15:19.177Z,23.54
2022-08-17T23:20:21.919Z,23.46
2022-08-17T23:25:30.719Z,23.38
2022-08-17T23:30:36.913Z,23.34
2022-08-17T23:35:41.100Z,23.32
2022-08-17T23:40:44.158Z,23.30
2022-08-17T23:45:47.139Z,23.23
2022-08-17T23:50:51.837Z,23.15
2022-08-17T23:56:03.849Z,23.08
